Helmsdale, United Kingdom
Current Conditions -  °F | °C
As of 10:50 PM on Thursday 18 Dec 2014 (Local Time) from EGQS Reporting Station
Clear Clear  
Wind Chill: 29°   Ceiling: Unl
Heat Index: 37°   Visibility: 6mi
Dew Point: 34°   Wind: 15mph
Humidity: 87%   Direction: 230°SW
Pressure: 29.29"   Gusts: NA
Location:  58.12°N, 3.66°W
Report Text: EGQS 182250Z 23013KT CAVOK 03/01 Q0992 BLU
Loading
Personal Weather Stations






























Interactive Weather Map New forecast layout! Learn more

10-Day Weather Forecast

Advertisements
Track Severe Weather on mobile